MiSS Donna — WDG2382 — position and weather

sailwx.info

Track history (hours):
 
Tides and Currents Weather Stations Pressure Air Temp Water Temp Dewpoint Dewpoint Depression Visibility Wind Speed Wind Dir Waves Ship Positions

MiSS Donna

Owner: OCEAN MARINE BOAT RENTALS,LLC, MORGAN CITY, LA. More information available from US FCC via Universal Licensing System and Coast Guard Vessel Documentation Center.

Last reported at 2018-Feb-19 23:27 UTC. Time now 2018-Feb-19 23:53 UTC.
Position N 39°13' W 075°18'.

Length 21 m; draft 2.7 m.

Type: Towing. MMSI: 367515090.

Date/timePositionNaut miles runAvg speedWind from/ knotsBaromVisibWave heightAir tempDewpointWater temp
2018-Feb-19 23:27N 39°13' W 075°18'12 1.9
2018-Feb-19 17:01N 39°14' W 075°02'0 0.0
2018-Feb-19 16:49N 39°14' W 075°02'0 0.0
2018-Feb-19 16:20N 39°14' W 075°02'0 0.0
2018-Feb-19 15:59N 39°14' W 075°02'0 0.1
2018-Feb-19 15:27N 39°14' W 075°02'0 0.0
2018-Feb-19 14:06N 39°14' W 075°02'0 0.0
2018-Feb-19 13:14N 39°14' W 075°02'0 0.0
2018-Feb-19 12:58N 39°14' W 075°02'0 0.0
2018-Feb-19 12:30N 39°14' W 075°02'0 0.0
2018-Feb-19 11:53N 39°14' W 075°02'0 0.0
2018-Feb-19 11:25N 39°14' W 075°02'0 0.0
2018-Feb-19 10:55N 39°14' W 075°02'0 0.0
2018-Feb-19 10:30N 39°14' W 075°02'0 0.0
2018-Feb-19 10:00N 39°14' W 075°02'0 0.0
2018-Feb-19 09:30N 39°14' W 075°02'0 0.0
2018-Feb-19 08:55N 39°14' W 075°02'0 0.0
2018-Feb-19 08:30N 39°14' W 075°02'0 0.0
2018-Feb-19 08:00N 39°14' W 075°02'0 0.0
2018-Feb-19 07:30N 39°14' W 075°02'0 0.0
2018-Feb-19 07:00N 39°14' W 075°02'0 0.0
2018-Feb-19 06:25N 39°14' W 075°02'0 0.0
2018-Feb-19 04:58N 39°14' W 075°02'0 0.0
2018-Feb-19 04:27N 39°14' W 075°02'1 2.0
2018-Feb-19 03:45N 39°12' W 075°03'11 4.1
2018-Feb-19 01:07N 39°10' W 075°16'4 7.6
2018-Feb-19 00:38N 39°14' W 075°18'1 8.5
2018-Feb-19 00:30N 39°15' W 075°19'4 8.8
2018-Feb-19 00:00N 39°18' W 075°23'510.0
2018-Feb-18 23:30N 39°22' W 075°27'510.1
2018-Feb-18 23:00N 39°26' W 075°31'4 8.5
2018-Feb-18 22:30N 39°29' W 075°34'4 8.3
2018-Feb-18 22:00N 39°34' W 075°34'3 6.7
2018-Feb-18 21:30N 39°33' W 075°38'3 6.3
2018-Feb-18 21:00N 39°33' W 075°42'3 6.0
2018-Feb-18 20:30N 39°32' W 075°46'3 5.5
2018-Feb-18 20:00N 39°32' W 075°49'3 5.3
2018-Feb-18 19:30N 39°31' W 075°53'3 5.8
2018-Feb-18 19:00N 39°30' W 075°56'3 6.2
2018-Feb-18 18:30N 39°28' W 075°59'4 6.3
2018-Feb-18 17:51N 39°25' W 076°02'24 6.3
2018-Feb-18 14:01N 39°11' W 076°28'0 7.2
2018-Feb-18 13:59N 39°11' W 076°29'3 6.8
2018-Feb-18 13:28N 39°13' W 076°32'2 4.1
2018-Feb-18 13:00N 39°13' W 076°35'0 0.0
2018-Feb-18 10:20N 39°13' W 076°35'0 0.0
2018-Feb-18 09:44N 39°13' W 076°35'0 0.0
2018-Feb-18 04:21N 39°13' W 076°35'0 0.0
2018-Feb-18 03:59N 39°13' W 076°35'0 0.0
2018-Feb-18 03:27N 39°13' W 076°35'0 0.0
2018-Feb-18 02:59N 39°13' W 076°35'0 0.0
2018-Feb-18 02:25N 39°13' W 076°35'0 0.0
2018-Feb-18 01:59N 39°13' W 076°35'0 0.0
2018-Feb-18 01:26N 39°13' W 076°35'0 0.0
2018-Feb-18 00:54N 39°13' W 076°35'0 0.0
2018-Feb-18 00:23N 39°13' W 076°35'0 0.0
2018-Feb-17 19:26N 39°13' W 076°35'0 0.0
2018-Feb-17 18:57N 39°13' W 076°35'0 0.0
2018-Feb-17 18:18N 39°13' W 076°35'0 0.0
2018-Feb-17 16:14N 39°13' W 076°35'0 0.7
2018-Feb-17 15:59N 39°13' W 076°35'3 5.7
2018-Feb-17 15:28N 39°12' W 076°31'3 7.1
2018-Feb-17 15:00N 39°11' W 076°27'4 7.0
2018-Feb-17 14:30N 39°08' W 076°24'5 7.1
2018-Feb-17 13:45N 39°03' W 076°23'3 6.5
2018-Feb-17 13:14N 38°60' W 076°23'1 1.1
2018-Feb-17 12:39N 38°59' W 076°24'0 1.0
2018-Feb-17 12:30N 38°59' W 076°24'2 2.6
2018-Feb-17 11:49N 39°01' W 076°23'2 6.1
2018-Feb-17 11:29N 39°03' W 076°23'11 5.5
2018-Feb-17 09:31N 39°12' W 076°31'0 6.4
2018-Feb-17 09:30N 39°12' W 076°31'3 5.3
2018-Feb-17 08:56N 39°13' W 076°35'0 0.8
2018-Feb-17 08:30N 39°13' W 076°35'0 0.1
2018-Feb-17 08:00N 39°13' W 076°35'0 0.0
2018-Feb-17 07:30N 39°13' W 076°35'0 0.0
2018-Feb-17 06:58N 39°13' W 076°35'0 0.0
2018-Feb-17 06:24N 39°13' W 076°35'1 0.3
2018-Feb-17 04:44N 39°13' W 076°34'2 5.2
2018-Feb-17 04:19N 39°15' W 076°35'0 0.9
2018-Feb-17 04:00N 39°15' W 076°35'0 0.4
2018-Feb-17 03:30N 39°15' W 076°35'0 0.3
2018-Feb-17 03:00N 39°16' W 076°35'3 6.6
2018-Feb-17 02:30N 39°13' W 076°32'4 7.4
2018-Feb-17 02:00N 39°11' W 076°28'31 4.4
2018-Feb-16 18:54N 39°30' W 075°56'1 3.7
2018-Feb-16 18:30N 39°29' W 075°57'1 1.5
2018-Feb-16 18:01N 39°28' W 075°58'0 0.0
2018-Feb-16 17:31N 39°28' W 075°58'0 0.0
2018-Feb-16 17:00N 39°28' W 075°58'0 0.0
2018-Feb-16 16:30N 39°28' W 075°58'0 0.0
2018-Feb-16 16:00N 39°28' W 075°58'0 0.0
2018-Feb-16 15:31N 39°28' W 075°58'1 2.7
2018-Feb-16 15:01N 39°27' W 075°59'3 6.4
2018-Feb-16 14:31N 39°25' W 076°02'11 6.7
2018-Feb-16 12:56N 39°19' W 076°13'14 5.6
2018-Feb-16 10:27N 39°11' W 076°28'2 5.5
2018-Feb-16 10:00N 39°12' W 076°31'3 5.1
2018-Feb-16 09:29N 39°13' W 076°34'1 0.2
2018-Feb-16 05:34N 39°13' W 076°35'0 0.0
2018-Feb-16 05:26N 39°13' W 076°35'0 0.0
2018-Feb-16 04:50N 39°13' W 076°35'0 0.0
2018-Feb-16 04:20N 39°13' W 076°35'0 0.0
2018-Feb-16 04:00N 39°13' W 076°35'0 0.0
2018-Feb-16 03:26N 39°13' W 076°35'0 0.0
2018-Feb-16 02:58N 39°13' W 076°35'0 0.0
2018-Feb-16 02:29N 39°13' W 076°35'0 0.0
2018-Feb-16 01:56N 39°13' W 076°35'0 0.0
2018-Feb-16 01:30N 39°13' W 076°35'0 0.0
2018-Feb-15 17:47N 39°13' W 076°35'0 0.0
2018-Feb-15 15:56N 39°13' W 076°35'0 0.0
2018-Feb-15 12:50N 39°13' W 076°35'0 0.0
2018-Feb-15 12:30N 39°13' W 076°35'0 0.0
2018-Feb-15 11:57N 39°13' W 076°35'0 0.0
2018-Feb-15 11:24N 39°13' W 076°35'0 0.0
2018-Feb-15 10:59N 39°13' W 076°35'0 0.0
2018-Feb-15 09:56N 39°13' W 076°35'0 0.0
2018-Feb-15 09:22N 39°13' W 076°35'0 0.0
2018-Feb-15 09:00N 39°13' W 076°35'0 0.0
2018-Feb-15 08:29N 39°13' W 076°35'0 0.0
2018-Feb-15 08:00N 39°13' W 076°35'0 0.0
2018-Feb-15 04:37N 39°13' W 076°35'0 0.0
2018-Feb-15 04:30N 39°13' W 076°35'0 0.0
2018-Feb-15 04:00N 39°13' W 076°35'0 0.0
2018-Feb-15 03:30N 39°13' W 076°35'0 0.0
2018-Feb-15 02:58N 39°13' W 076°35'0 0.0
2018-Feb-15 02:30N 39°13' W 076°35'0 0.0
2018-Feb-15 01:59N 39°13' W 076°35'0 0.0
2018-Feb-15 01:30N 39°13' W 076°35'0 0.0
2018-Feb-15 00:49N 39°13' W 076°35'0 0.0
2018-Feb-15 00:25N 39°13' W 076°35'0 0.0
2018-Feb-14 23:56N 39°13' W 076°35'0 0.0
2018-Feb-14 23:27N 39°13' W 076°35'0 0.0
2018-Feb-14 21:52N 39°13' W 076°35'0 0.0
2018-Feb-14 20:59N 39°13' W 076°35'0 0.0
2018-Feb-14 11:47N 39°13' W 076°35'0 0.0
2018-Feb-14 11:17N 39°13' W 076°35'0 0.0
2018-Feb-14 03:31N 39°13' W 076°35'0 0.1
2018-Feb-13 23:22N 39°13' W 076°35'3 6.3
2018-Feb-13 22:56N 39°15' W 076°34'0 0.0
2018-Feb-13 22:28N 39°15' W 076°34'1 2.9
2018-Feb-13 22:00N 39°14' W 076°33'3 6.0
2018-Feb-13 21:30N 39°12' W 076°30'3 5.7
2018-Feb-13 21:00N 39°11' W 076°27'3 5.8
2018-Feb-13 20:30N 39°09' W 076°25'6 5.7
2018-Feb-13 19:26N 39°03' W 076°23'3 5.3
2018-Feb-13 18:50N 38°60' W 076°23'1 1.7
2018-Feb-13 18:28N 38°60' W 076°24'0 0.6
2018-Feb-13 18:00N 38°60' W 076°24'0 0.9
2018-Feb-13 17:29N 38°59' W 076°24'2 2.8
2018-Feb-13 16:56N 38°58' W 076°25'1 1.3
2018-Feb-13 16:24N 38°59' W 076°24'1 1.2
2018-Feb-13 15:19N 38°58' W 076°25'1 0.6
2018-Feb-13 14:27N 38°58' W 076°25'0 0.8
2018-Feb-13 13:59N 38°58' W 076°25'1 1.7
2018-Feb-13 13:29N 38°59' W 076°24'2 3.6
2018-Feb-13 12:56N 39°01' W 076°23'13 5.7
2018-Feb-13 10:40N 39°12' W 076°30'1 5.8
2018-Feb-13 10:30N 39°13' W 076°31'3 6.1
2018-Feb-13 10:00N 39°15' W 076°34'0 0.7
2018-Feb-13 09:30N 39°15' W 076°34'3 0.9
2018-Feb-13 06:43N 39°13' W 076°35'0 0.0
2018-Feb-13 06:20N 39°13' W 076°35'0 0.0
2018-Feb-13 05:51N 39°13' W 076°35'0 0.0
2018-Feb-13 05:26N 39°13' W 076°35'0 0.0
2018-Feb-13 04:51N 39°13' W 076°35'0 0.0
2018-Feb-13 04:28N 39°13' W 076°35'0 0.0
2018-Feb-13 04:00N 39°13' W 076°35'0 0.0
2018-Feb-13 03:26N 39°13' W 076°35'0 0.0
2018-Feb-13 02:57N 39°13' W 076°35'0 0.2
2018-Feb-13 02:30N 39°13' W 076°35'2 3.7
2018-Feb-13 02:00N 39°14' W 076°33'3 6.2
2018-Feb-13 01:30N 39°17' W 076°35'1 1.6
2018-Feb-13 01:00N 39°17' W 076°36'2 3.1
2018-Feb-13 00:30N 39°15' W 076°35'0 0.7
2018-Feb-13 00:00N 39°15' W 076°35'1 2.9
2018-Feb-12 23:30N 39°15' W 076°34'3 5.7
2018-Feb-12 23:00N 39°13' W 076°31'3 5.7
2018-Feb-12 22:30N 39°11' W 076°28'3 5.8
2018-Feb-12 22:00N 39°09' W 076°25'3 4.9
2018-Feb-12 21:24N 39°11' W 076°28'3 8.2
2018-Feb-12 21:00N 39°13' W 076°32'4 7.3
2018-Feb-12 20:30N 39°15' W 076°35'1 2.4
2018-Feb-12 19:57N 39°15' W 076°34'1 3.2
2018-Feb-12 19:30N 39°15' W 076°35'0 0.8
2018-Feb-12 19:00N 39°15' W 076°35'0 0.0
2018-Feb-12 18:28N 39°15' W 076°35'0 0.0
2018-Feb-12 18:00N 39°15' W 076°35'0 0.0
2018-Feb-12 17:30N 39°15' W 076°35'2 3.2
2018-Feb-12 17:00N 39°15' W 076°33'3 5.4
2018-Feb-12 16:30N 39°12' W 076°31'3 5.6
2018-Feb-12 16:00N 39°11' W 076°28'3 5.5
2018-Feb-12 15:30N 39°09' W 076°25'3 5.1
2018-Feb-12 15:00N 39°07' W 076°24'4 4.6
2018-Feb-12 14:02N 39°03' W 076°23'1 4.7
2018-Feb-12 13:47N 39°02' W 076°23'1 4.3
2018-Feb-12 13:30N 39°00' W 076°23'2 2.9
2018-Feb-12 12:53N 38°59' W 076°24'0 1.1
2018-Feb-12 12:30N 38°59' W 076°24'1 1.2
2018-Feb-12 11:59N 38°60' W 076°23'14 5.9
2018-Feb-12 09:40N 39°12' W 076°30'1 6.1
2018-Feb-12 09:30N 39°13' W 076°31'3 6.2
2018-Feb-12 09:00N 39°15' W 076°34'1 2.1
2018-Feb-12 08:30N 39°16' W 076°35'1 2.1
2018-Feb-12 08:00N 39°15' W 076°34'3 4.5
2018-Feb-12 07:24N 39°13' W 076°35'0 0.6
2018-Feb-12 06:57N 39°13' W 076°35'0 0.0
2018-Feb-12 06:24N 39°13' W 076°35'0 0.0
2018-Feb-12 05:59N 39°13' W 076°35'0 0.0
2018-Feb-12 05:25N 39°13' W 076°35'0 0.0
2018-Feb-12 04:44N 39°13' W 076°35'0 0.0
2018-Feb-12 04:30N 39°13' W 076°35'0 0.0
2018-Feb-11 20:30N 39°13' W 076°35'3 6.8
2018-Feb-11 20:00N 39°12' W 076°31'5 8.5
2018-Feb-11 19:28N 39°10' W 076°25'7 9.0
2018-Feb-11 18:39N 39°03' W 076°23'1 9.8
2018-Feb-11 18:30N 39°01' W 076°23'2 4.7
2018-Feb-11 18:00N 38°59' W 076°24'0 0.7
2018-Feb-11 17:30N 38°60' W 076°24'0 0.3
2018-Feb-11 17:00N 38°60' W 076°24'0 0.5
2018-Feb-11 16:10N 38°59' W 076°24'0 0.4
2018-Feb-11 14:54N 38°60' W 076°24'0 0.1
2018-Feb-11 12:13N 38°59' W 076°24'0 0.2
2018-Feb-11 11:55N 38°60' W 076°24'1 1.8
2018-Feb-11 11:29N 38°60' W 076°23'15 5.7
2018-Feb-11 08:52N 39°13' W 076°32'3 6.2
2018-Feb-11 08:28N 39°15' W 076°34'1 2.5
2018-Feb-11 08:00N 39°15' W 076°35'2 0.3
2018-Feb-10 23:56N 39°13' W 076°35'2 5.2
2018-Feb-10 23:29N 39°15' W 076°35'2 2.5
2018-Feb-10 22:49N 39°14' W 076°33'2 5.8
2018-Feb-10 22:28N 39°13' W 076°31'3 5.7
2018-Feb-10 21:58N 39°11' W 076°28'3 5.6
2018-Feb-10 21:28N 39°10' W 076°25'10 5.7
2018-Feb-10 19:43N 38°60' W 076°24'0 0.0
2018-Feb-10 12:14N 38°60' W 076°24'0 0.1
2018-Feb-10 11:54N 38°60' W 076°24'0 0.2
2018-Feb-10 11:23N 38°60' W 076°24'7 4.9
2018-Feb-10 09:53N 39°07' W 076°24'7 5.6
2018-Feb-10 08:36N 39°12' W 076°31'1 5.8
2018-Feb-10 08:30N 39°12' W 076°31'3 5.0
2018-Feb-10 07:57N 39°13' W 076°35'0 0.1
2018-Feb-10 01:10N 39°13' W 076°35'0 0.6
2018-Feb-10 01:00N 39°13' W 076°35'2 3.7
2018-Feb-10 00:30N 39°14' W 076°33'2 4.0
2018-Feb-10 00:00N 39°15' W 076°35'0 0.0
2018-Feb-09 23:30N 39°15' W 076°35'  
Track history (hours):
 
Tides and Currents Weather Stations Pressure Air Temp Water Temp Dewpoint Dewpoint Depression Visibility Wind Speed Wind Dir Waves Ship Positions

MiSS Donna

Owner: OCEAN MARINE BOAT RENTALS,LLC, MORGAN CITY, LA. More information available from US FCC via Universal Licensing System and Coast Guard Vessel Documentation Center.

Last reported at 2018-Feb-19 23:27 UTC. Time now 2018-Feb-19 23:53 UTC.
Position N 39°13' W 075°18'.

Length 21 m; draft 2.7 m.

Type: Towing. MMSI: 367515090.

Date/timePositionNaut miles runAvg speedWind from/ knotsBaromVisibWave heightAir tempDewpointWater temp
2018-Feb-19 23:27N 39°13' W 075°18'12 1.9
2018-Feb-19 17:01N 39°14' W 075°02'0 0.0
2018-Feb-19 16:49N 39°14' W 075°02'0 0.0
2018-Feb-19 16:20N 39°14' W 075°02'0 0.0
2018-Feb-19 15:59N 39°14' W 075°02'0 0.1
2018-Feb-19 15:27N 39°14' W 075°02'0 0.0
2018-Feb-19 14:06N 39°14' W 075°02'0 0.0
2018-Feb-19 13:14N 39°14' W 075°02'0 0.0
2018-Feb-19 12:58N 39°14' W 075°02'0 0.0
2018-Feb-19 12:30N 39°14' W 075°02'0 0.0
2018-Feb-19 11:53N 39°14' W 075°02'0 0.0
2018-Feb-19 11:25N 39°14' W 075°02'0 0.0
2018-Feb-19 10:55N 39°14' W 075°02'0 0.0
2018-Feb-19 10:30N 39°14' W 075°02'0 0.0
2018-Feb-19 10:00N 39°14' W 075°02'0 0.0
2018-Feb-19 09:30N 39°14' W 075°02'0 0.0
2018-Feb-19 08:55N 39°14' W 075°02'0 0.0
2018-Feb-19 08:30N 39°14' W 075°02'0 0.0
2018-Feb-19 08:00N 39°14' W 075°02'0 0.0
2018-Feb-19 07:30N 39°14' W 075°02'0 0.0
2018-Feb-19 07:00N 39°14' W 075°02'0 0.0
2018-Feb-19 06:25N 39°14' W 075°02'0 0.0
2018-Feb-19 04:58N 39°14' W 075°02'0 0.0
2018-Feb-19 04:27N 39°14' W 075°02'1 2.0
2018-Feb-19 03:45N 39°12' W 075°03'11 4.1
2018-Feb-19 01:07N 39°10' W 075°16'4 7.6
2018-Feb-19 00:38N 39°14' W 075°18'1 8.5
2018-Feb-19 00:30N 39°15' W 075°19'4 8.8
2018-Feb-19 00:00N 39°18' W 075°23'510.0
2018-Feb-18 23:30N 39°22' W 075°27'510.1
2018-Feb-18 23:00N 39°26' W 075°31'4 8.5
2018-Feb-18 22:30N 39°29' W 075°34'4 8.3
2018-Feb-18 22:00N 39°34' W 075°34'3 6.7
2018-Feb-18 21:30N 39°33' W 075°38'3 6.3
2018-Feb-18 21:00N 39°33' W 075°42'3 6.0
2018-Feb-18 20:30N 39°32' W 075°46'3 5.5
2018-Feb-18 20:00N 39°32' W 075°49'3 5.3
2018-Feb-18 19:30N 39°31' W 075°53'3 5.8
2018-Feb-18 19:00N 39°30' W 075°56'3 6.2
2018-Feb-18 18:30N 39°28' W 075°59'4 6.3
2018-Feb-18 17:51N 39°25' W 076°02'24 6.3
2018-Feb-18 14:01N 39°11' W 076°28'0 7.2
2018-Feb-18 13:59N 39°11' W 076°29'3 6.8
2018-Feb-18 13:28N 39°13' W 076°32'2 4.1
2018-Feb-18 13:00N 39°13' W 076°35'0 0.0
2018-Feb-18 10:20N 39°13' W 076°35'0 0.0
2018-Feb-18 09:44N 39°13' W 076°35'0 0.0
2018-Feb-18 04:21N 39°13' W 076°35'0 0.0
2018-Feb-18 03:59N 39°13' W 076°35'0 0.0
2018-Feb-18 03:27N 39°13' W 076°35'0 0.0
2018-Feb-18 02:59N 39°13' W 076°35'0 0.0
2018-Feb-18 02:25N 39°13' W 076°35'0 0.0
2018-Feb-18 01:59N 39°13' W 076°35'0 0.0
2018-Feb-18 01:26N 39°13' W 076°35'0 0.0
2018-Feb-18 00:54N 39°13' W 076°35'0 0.0
2018-Feb-18 00:23N 39°13' W 076°35'0 0.0
2018-Feb-17 19:26N 39°13' W 076°35'0 0.0
2018-Feb-17 18:57N 39°13' W 076°35'0 0.0
2018-Feb-17 18:18N 39°13' W 076°35'0 0.0
2018-Feb-17 16:14N 39°13' W 076°35'0 0.7
2018-Feb-17 15:59N 39°13' W 076°35'3 5.7
2018-Feb-17 15:28N 39°12' W 076°31'3 7.1
2018-Feb-17 15:00N 39°11' W 076°27'4 7.0
2018-Feb-17 14:30N 39°08' W 076°24'5 7.1
2018-Feb-17 13:45N 39°03' W 076°23'3 6.5
2018-Feb-17 13:14N 38°60' W 076°23'1 1.1
2018-Feb-17 12:39N 38°59' W 076°24'0 1.0
2018-Feb-17 12:30N 38°59' W 076°24'2 2.6
2018-Feb-17 11:49N 39°01' W 076°23'2 6.1
2018-Feb-17 11:29N 39°03' W 076°23'11 5.5
2018-Feb-17 09:31N 39°12' W 076°31'0 6.4
2018-Feb-17 09:30N 39°12' W 076°31'3 5.3
2018-Feb-17 08:56N 39°13' W 076°35'0 0.8
2018-Feb-17 08:30N 39°13' W 076°35'0 0.1
2018-Feb-17 08:00N 39°13' W 076°35'0 0.0
2018-Feb-17 07:30N 39°13' W 076°35'0 0.0
2018-Feb-17 06:58N 39°13' W 076°35'0 0.0
2018-Feb-17 06:24N 39°13' W 076°35'1 0.3
2018-Feb-17 04:44N 39°13' W 076°34'2 5.2
2018-Feb-17 04:19N 39°15' W 076°35'0 0.9
2018-Feb-17 04:00N 39°15' W 076°35'0 0.4
2018-Feb-17 03:30N 39°15' W 076°35'0 0.3
2018-Feb-17 03:00N 39°16' W 076°35'3 6.6
2018-Feb-17 02:30N 39°13' W 076°32'4 7.4
2018-Feb-17 02:00N 39°11' W 076°28'31 4.4
2018-Feb-16 18:54N 39°30' W 075°56'1 3.7
2018-Feb-16 18:30N 39°29' W 075°57'1 1.5
2018-Feb-16 18:01N 39°28' W 075°58'0 0.0
2018-Feb-16 17:31N 39°28' W 075°58'0 0.0
2018-Feb-16 17:00N 39°28' W 075°58'0 0.0
2018-Feb-16 16:30N 39°28' W 075°58'0 0.0
2018-Feb-16 16:00N 39°28' W 075°58'0 0.0
2018-Feb-16 15:31N 39°28' W 075°58'1 2.7
2018-Feb-16 15:01N 39°27' W 075°59'3 6.4
2018-Feb-16 14:31N 39°25' W 076°02'11 6.7
2018-Feb-16 12:56N 39°19' W 076°13'14 5.6
2018-Feb-16 10:27N 39°11' W 076°28'2 5.5
2018-Feb-16 10:00N 39°12' W 076°31'3 5.1
2018-Feb-16 09:29N 39°13' W 076°34'1 0.2
2018-Feb-16 05:34N 39°13' W 076°35'0 0.0
2018-Feb-16 05:26N 39°13' W 076°35'0 0.0
2018-Feb-16 04:50N 39°13' W 076°35'0 0.0
2018-Feb-16 04:20N 39°13' W 076°35'0 0.0
2018-Feb-16 04:00N 39°13' W 076°35'0 0.0
2018-Feb-16 03:26N 39°13' W 076°35'0 0.0
2018-Feb-16 02:58N 39°13' W 076°35'0 0.0
2018-Feb-16 02:29N 39°13' W 076°35'0 0.0
2018-Feb-16 01:56N 39°13' W 076°35'0 0.0
2018-Feb-16 01:30N 39°13' W 076°35'0 0.0
2018-Feb-15 17:47N 39°13' W 076°35'0 0.0
2018-Feb-15 15:56N 39°13' W 076°35'0 0.0
2018-Feb-15 12:50N 39°13' W 076°35'0 0.0
2018-Feb-15 12:30N 39°13' W 076°35'0 0.0
2018-Feb-15 11:57N 39°13' W 076°35'0 0.0
2018-Feb-15 11:24N 39°13' W 076°35'0 0.0
2018-Feb-15 10:59N 39°13' W 076°35'0 0.0
2018-Feb-15 09:56N 39°13' W 076°35'0 0.0
2018-Feb-15 09:22N 39°13' W 076°35'0 0.0
2018-Feb-15 09:00N 39°13' W 076°35'0 0.0
2018-Feb-15 08:29N 39°13' W 076°35'0 0.0
2018-Feb-15 08:00N 39°13' W 076°35'0 0.0
2018-Feb-15 04:37N 39°13' W 076°35'0 0.0
2018-Feb-15 04:30N 39°13' W 076°35'0 0.0
2018-Feb-15 04:00N 39°13' W 076°35'0 0.0
2018-Feb-15 03:30N 39°13' W 076°35'0 0.0
2018-Feb-15 02:58N 39°13' W 076°35'0 0.0
2018-Feb-15 02:30N 39°13' W 076°35'0 0.0
2018-Feb-15 01:59N 39°13' W 076°35'0 0.0
2018-Feb-15 01:30N 39°13' W 076°35'0 0.0
2018-Feb-15 00:49N 39°13' W 076°35'0 0.0
2018-Feb-15 00:25N 39°13' W 076°35'0 0.0
2018-Feb-14 23:56N 39°13' W 076°35'0 0.0
2018-Feb-14 23:27N 39°13' W 076°35'0 0.0
2018-Feb-14 21:52N 39°13' W 076°35'0 0.0
2018-Feb-14 20:59N 39°13' W 076°35'0 0.0
2018-Feb-14 11:47N 39°13' W 076°35'0 0.0
2018-Feb-14 11:17N 39°13' W 076°35'0 0.0
2018-Feb-14 03:31N 39°13' W 076°35'0 0.1
2018-Feb-13 23:22N 39°13' W 076°35'3 6.3
2018-Feb-13 22:56N 39°15' W 076°34'0 0.0
2018-Feb-13 22:28N 39°15' W 076°34'1 2.9
2018-Feb-13 22:00N 39°14' W 076°33'3 6.0
2018-Feb-13 21:30N 39°12' W 076°30'3 5.7
2018-Feb-13 21:00N 39°11' W 076°27'3 5.8
2018-Feb-13 20:30N 39°09' W 076°25'6 5.7
2018-Feb-13 19:26N 39°03' W 076°23'3 5.3
2018-Feb-13 18:50N 38°60' W 076°23'1 1.7
2018-Feb-13 18:28N 38°60' W 076°24'0 0.6
2018-Feb-13 18:00N 38°60' W 076°24'0 0.9
2018-Feb-13 17:29N 38°59' W 076°24'2 2.8
2018-Feb-13 16:56N 38°58' W 076°25'1 1.3
2018-Feb-13 16:24N 38°59' W 076°24'1 1.2
2018-Feb-13 15:19N 38°58' W 076°25'1 0.6
2018-Feb-13 14:27N 38°58' W 076°25'0 0.8
2018-Feb-13 13:59N 38°58' W 076°25'1 1.7
2018-Feb-13 13:29N 38°59' W 076°24'2 3.6
2018-Feb-13 12:56N 39°01' W 076°23'13 5.7
2018-Feb-13 10:40N 39°12' W 076°30'1 5.8
2018-Feb-13 10:30N 39°13' W 076°31'3 6.1
2018-Feb-13 10:00N 39°15' W 076°34'0 0.7
2018-Feb-13 09:30N 39°15' W 076°34'3 0.9
2018-Feb-13 06:43N 39°13' W 076°35'0 0.0
2018-Feb-13 06:20N 39°13' W 076°35'0 0.0
2018-Feb-13 05:51N 39°13' W 076°35'0 0.0
2018-Feb-13 05:26N 39°13' W 076°35'0 0.0
2018-Feb-13 04:51N 39°13' W 076°35'0 0.0
2018-Feb-13 04:28N 39°13' W 076°35'0 0.0
2018-Feb-13 04:00N 39°13' W 076°35'0 0.0
2018-Feb-13 03:26N 39°13' W 076°35'0 0.0
2018-Feb-13 02:57N 39°13' W 076°35'0 0.2
2018-Feb-13 02:30N 39°13' W 076°35'2 3.7
2018-Feb-13 02:00N 39°14' W 076°33'3 6.2
2018-Feb-13 01:30N 39°17' W 076°35'1 1.6
2018-Feb-13 01:00N 39°17' W 076°36'2 3.1
2018-Feb-13 00:30N 39°15' W 076°35'0 0.7
2018-Feb-13 00:00N 39°15' W 076°35'1 2.9
2018-Feb-12 23:30N 39°15' W 076°34'3 5.7
2018-Feb-12 23:00N 39°13' W 076°31'3 5.7
2018-Feb-12 22:30N 39°11' W 076°28'3 5.8
2018-Feb-12 22:00N 39°09' W 076°25'3 4.9
2018-Feb-12 21:24N 39°11' W 076°28'3 8.2
2018-Feb-12 21:00N 39°13' W 076°32'4 7.3
2018-Feb-12 20:30N 39°15' W 076°35'1 2.4
2018-Feb-12 19:57N 39°15' W 076°34'1 3.2
2018-Feb-12 19:30N 39°15' W 076°35'0 0.8
2018-Feb-12 19:00N 39°15' W 076°35'0 0.0
2018-Feb-12 18:28N 39°15' W 076°35'0 0.0
2018-Feb-12 18:00N 39°15' W 076°35'0 0.0
2018-Feb-12 17:30N 39°15' W 076°35'2 3.2
2018-Feb-12 17:00N 39°15' W 076°33'3 5.4
2018-Feb-12 16:30N 39°12' W 076°31'3 5.6
2018-Feb-12 16:00N 39°11' W 076°28'3 5.5
2018-Feb-12 15:30N 39°09' W 076°25'3 5.1
2018-Feb-12 15:00N 39°07' W 076°24'4 4.6
2018-Feb-12 14:02N 39°03' W 076°23'1 4.7
2018-Feb-12 13:47N 39°02' W 076°23'1 4.3
2018-Feb-12 13:30N 39°00' W 076°23'2 2.9
2018-Feb-12 12:53N 38°59' W 076°24'0 1.1
2018-Feb-12 12:30N 38°59' W 076°24'1 1.2
2018-Feb-12 11:59N 38°60' W 076°23'14 5.9
2018-Feb-12 09:40N 39°12' W 076°30'1 6.1
2018-Feb-12 09:30N 39°13' W 076°31'3 6.2
2018-Feb-12 09:00N 39°15' W 076°34'1 2.1
2018-Feb-12 08:30N 39°16' W 076°35'1 2.1
2018-Feb-12 08:00N 39°15' W 076°34'3 4.5
2018-Feb-12 07:24N 39°13' W 076°35'0 0.6
2018-Feb-12 06:57N 39°13' W 076°35'0 0.0
2018-Feb-12 06:24N 39°13' W 076°35'0 0.0
2018-Feb-12 05:59N 39°13' W 076°35'0 0.0
2018-Feb-12 05:25N 39°13' W 076°35'0 0.0
2018-Feb-12 04:44N 39°13' W 076°35'0 0.0
2018-Feb-12 04:30N 39°13' W 076°35'0 0.0
2018-Feb-11 20:30N 39°13' W 076°35'3 6.8
2018-Feb-11 20:00N 39°12' W 076°31'5 8.5
2018-Feb-11 19:28N 39°10' W 076°25'7 9.0
2018-Feb-11 18:39N 39°03' W 076°23'1 9.8
2018-Feb-11 18:30N 39°01' W 076°23'2 4.7
2018-Feb-11 18:00N 38°59' W 076°24'0 0.7
2018-Feb-11 17:30N 38°60' W 076°24'0 0.3
2018-Feb-11 17:00N 38°60' W 076°24'0 0.5
2018-Feb-11 16:10N 38°59' W 076°24'0 0.4
2018-Feb-11 14:54N 38°60' W 076°24'0 0.1
2018-Feb-11 12:13N 38°59' W 076°24'0 0.2
2018-Feb-11 11:55N 38°60' W 076°24'1 1.8
2018-Feb-11 11:29N 38°60' W 076°23'15 5.7
2018-Feb-11 08:52N 39°13' W 076°32'3 6.2
2018-Feb-11 08:28N 39°15' W 076°34'1 2.5
2018-Feb-11 08:00N 39°15' W 076°35'2 0.3
2018-Feb-10 23:56N 39°13' W 076°35'2 5.2
2018-Feb-10 23:29N 39°15' W 076°35'2 2.5
2018-Feb-10 22:49N 39°14' W 076°33'2 5.8
2018-Feb-10 22:28N 39°13' W 076°31'3 5.7
2018-Feb-10 21:58N 39°11' W 076°28'3 5.6
2018-Feb-10 21:28N 39°10' W 076°25'10 5.7
2018-Feb-10 19:43N 38°60' W 076°24'0 0.0
2018-Feb-10 12:14N 38°60' W 076°24'0 0.1
2018-Feb-10 11:54N 38°60' W 076°24'0 0.2
2018-Feb-10 11:23N 38°60' W 076°24'7 4.9
2018-Feb-10 09:53N 39°07' W 076°24'7 5.6
2018-Feb-10 08:36N 39°12' W 076°31'1 5.8
2018-Feb-10 08:30N 39°12' W 076°31'3 5.0
2018-Feb-10 07:57N 39°13' W 076°35'0 0.1
2018-Feb-10 01:10N 39°13' W 076°35'0 0.6
2018-Feb-10 01:00N 39°13' W 076°35'2 3.7
2018-Feb-10 00:30N 39°14' W 076°33'2 4.0
2018-Feb-10 00:00N 39°15' W 076°35'0 0.0
2018-Feb-09 23:30N 39°15' W 076°35'  

Dump ship's entire track history